Time;durP1;ratioP1;P1;durP2;ratioP2;P2;SDS_P1;SDS_P2;PMS_P1;PMS_P2;Temp;Humidity;BMP_temperature;BMP_pressure;BME280_temperature;BME280_humidity;BME280_pressure;Samples;Min_cycle;Max_cycle;Signal;HPM_P1;HPM_P2
2021/03/09 00:01:25;;;;;;;82.40;35.57;;;;;;;;;;5161038;27;20197;-35
2021/03/09 00:04:14;;;;;;;81.33;34.67;;;;;;;;;;5160666;27;20607;-36
2021/03/09 00:06:59;;;;;;;83.17;34.47;;;;;;;;;;5160707;27;20297;-35
2021/03/09 00:09:45;;;;;;;78.33;33.77;;;;;;;;;;5160520;27;20314;-32
2021/03/09 00:12:30;;;;;;;97.37;37.27;;;;;;;;;;5160334;27;20254;-31
2021/03/09 00:15:16;;;;;;;94.83;37.23;;;;;;;;;;5160378;27;20232;-35
2021/03/09 00:18:04;;;;;;;85.40;34.83;;;;;;;;;;5160623;27;20746;-32
2021/03/09 00:20:56;;;;;;;86.40;35.27;;;;;;;;;;5160231;27;20347;-33
2021/03/09 00:23:42;;;;;;;96.50;36.83;;;;;;;;;;5160228;27;20447;-32
2021/03/09 00:26:28;;;;;;;91.03;35.80;;;;;;;;;;5160079;27;20263;-34
2021/03/09 00:29:13;;;;;;;97.93;39.30;;;;;;;;;;5160107;27;20267;-34
2021/03/09 00:31:59;;;;;;;91.30;37.57;;;;;;;;;;5160289;27;20213;-34
2021/03/09 00:34:45;;;;;;;94.33;36.40;;;;;;;;;;5159809;27;20246;-33
2021/03/09 00:37:31;;;;;;;86.50;36.07;;;;;;;;;;5159445;27;20233;-32
2021/03/09 00:40:18;;;;;;;97.20;38.13;;;;;;;;;;5160150;27;20266;-34
2021/03/09 00:43:04;;;;;;;88.30;35.60;;;;;;;;;;5160137;27;20599;-31
2021/03/09 00:45:54;;;;;;;91.83;37.30;;;;;;;;;;5159945;27;20196;-35
2021/03/09 00:48:40;;;;;;;99.30;39.70;;;;;;;;;;5159810;27;20218;-31
2021/03/09 00:51:26;;;;;;;102.40;38.50;;;;;;;;;;5159675;27;20598;-32
2021/03/09 00:54:13;;;;;;;103.47;39.37;;;;;;;;;;5159690;27;20192;-37
2021/03/09 00:56:58;;;;;;;106.23;40.97;;;;;;;;;;5160275;27;20329;-32
2021/03/09 00:59:44;;;;;;;102.47;41.80;;;;;;;;;;5159437;27;20197;-33
2021/03/09 01:02:30;;;;;;;111.80;40.67;;;;;;;;;;5159589;27;20201;-33
2021/03/09 01:05:16;;;;;;;106.23;39.37;;;;;;;;;;5158507;27;20476;-32
2021/03/09 01:08:05;;;;;;;103.00;38.67;;;;;;;;;;5159105;27;20315;-33
2021/03/09 01:10:52;;;;;;;110.60;41.70;;;;;;;;;;5159436;27;20471;-32
2021/03/09 01:13:37;;;;;;;137.30;47.83;;;;;;;;;;5158516;27;20233;-35
2021/03/09 01:16:23;;;;;;;126.50;48.50;;;;;;;;;;5159273;27;20342;-33
2021/03/09 01:19:09;;;;;;;132.90;51.00;;;;;;;;;;5159457;27;20259;-34
2021/03/09 01:21:55;;;;;;;131.93;48.50;;;;;;;;;;5159136;27;20193;-35
2021/03/09 01:24:43;;;;;;;133.60;48.50;;;;;;;;;;5159233;27;20201;-31
2021/03/09 01:27:33;;;;;;;135.30;47.67;;;;;;;;;;5158402;27;20497;-34
2021/03/09 01:30:21;;;;;;;134.57;46.03;;;;;;;;;;5158864;27;20354;-32
2021/03/09 01:33:07;;;;;;;144.67;49.93;;;;;;;;;;5159023;27;20201;-33
2021/03/09 01:35:53;;;;;;;143.40;50.23;;;;;;;;;;5158729;27;20326;-33
2021/03/09 01:38:38;;;;;;;152.07;53.57;;;;;;;;;;5159073;27;20232;-33
2021/03/09 01:41:24;;;;;;;131.30;47.27;;;;;;;;;;5158522;27;20197;-34
2021/03/09 01:44:10;;;;;;;132.30;48.13;;;;;;;;;;5158521;27;20206;-32
2021/03/09 01:46:59;;;;;;;133.50;47.27;;;;;;;;;;5158846;27;20201;-33
2021/03/09 01:49:45;;;;;;;136.27;49.83;;;;;;;;;;5158682;27;20302;-33
2021/03/09 01:52:31;;;;;;;123.23;42.80;;;;;;;;;;5158645;27;20494;-36
2021/03/09 01:55:17;;;;;;;131.47;47.27;;;;;;;;;;5158597;27;20196;-32
2021/03/09 01:58:06;;;;;;;113.83;41.97;;;;;;;;;;5158307;27;20507;-35
2021/03/09 02:00:52;;;;;;;131.73;46.50;;;;;;;;;;5158660;27;20335;-38
2021/03/09 02:03:41;;;;;;;127.43;45.67;;;;;;;;;;5158644;27;20198;-36
2021/03/09 02:06:27;;;;;;;110.20;40.77;;;;;;;;;;5158463;27;20278;-33
2021/03/09 02:09:13;;;;;;;124.33;43.47;;;;;;;;;;5158323;27;20660;-36
2021/03/09 02:12:05;;;;;;;119.50;47.03;;;;;;;;;;5158311;27;20280;-32
2021/03/09 02:14:58;;;;;;;119.53;43.83;;;;;;;;;;5157426;27;20256;-32
2021/03/09 02:17:48;;;;;;;110.87;41.03;;;;;;;;;;5158325;27;20213;-32
2021/03/09 02:20:52;;;;;;;107.60;39.10;;;;;;;;;;5158347;27;20188;-33
2021/03/09 02:23:51;;;;;;;119.00;42.23;;;;;;;;;;5157672;27;20680;-32
2021/03/09 02:26:55;;;;;;;104.20;41.73;;;;;;;;;;5158422;27;20289;-36
2021/03/09 02:30:01;;;;;;;102.70;39.10;;;;;;;;;;5127303;27;20301;-34
2021/03/09 02:32:51;;;;;;;112.00;41.10;;;;;;;;;;5134352;27;20224;-34
2021/03/09 02:35:42;;;;;;;116.00;40.43;;;;;;;;;;5158296;27;20219;-32
2021/03/09 02:38:29;;;;;;;103.23;39.00;;;;;;;;;;5157985;27;20225;-33
2021/03/09 02:41:15;;;;;;;113.70;41.60;;;;;;;;;;5158143;27;20220;-31
2021/03/09 02:44:04;;;;;;;122.23;41.30;;;;;;;;;;5158223;27;20201;-32
2021/03/09 02:46:53;;;;;;;114.37;42.23;;;;;;;;;;5157894;27;20212;-32
2021/03/09 02:49:45;;;;;;;120.33;41.53;;;;;;;;;;5157817;27;20463;-34
2021/03/09 02:52:32;;;;;;;129.27;44.53;;;;;;;;;;5161758;27;20223;-34
2021/03/09 02:55:19;;;;;;;117.30;43.93;;;;;;;;;;5161833;27;20616;-32
2021/03/09 02:58:07;;;;;;;131.03;43.70;;;;;;;;;;5161878;27;20221;-34
2021/03/09 03:00:54;;;;;;;116.30;42.10;;;;;;;;;;5161861;27;20535;-31
2021/03/09 03:03:40;;;;;;;135.43;44.10;;;;;;;;;;5161735;27;20631;-32
2021/03/09 03:06:28;;;;;;;130.20;44.47;;;;;;;;;;5161968;27;20246;-31
2021/03/09 03:09:16;;;;;;;147.37;49.03;;;;;;;;;;5161733;27;20197;-31
2021/03/09 03:12:02;;;;;;;140.37;48.03;;;;;;;;;;5161583;27;20185;-34
2021/03/09 03:14:47;;;;;;;145.13;49.93;;;;;;;;;;5161538;27;20236;-33
2021/03/09 03:17:35;;;;;;;152.37;50.40;;;;;;;;;;5161345;27;20264;-32
2021/03/09 03:20:22;;;;;;;139.03;46.10;;;;;;;;;;5160955;27;20216;-34
2021/03/09 03:23:09;;;;;;;147.23;49.43;;;;;;;;;;5161677;27;20200;-31
2021/03/09 03:25:54;;;;;;;133.13;45.07;;;;;;;;;;5161487;27;20197;-33
2021/03/09 03:28:43;;;;;;;149.87;48.57;;;;;;;;;;5161360;27;20201;-37
2021/03/09 03:31:30;;;;;;;148.70;50.03;;;;;;;;;;5161282;27;20205;-33
2021/03/09 03:34:16;;;;;;;155.73;49.87;;;;;;;;;;5161098;27;20204;-34
2021/03/09 03:37:02;;;;;;;131.23;47.23;;;;;;;;;;5161113;27;20197;-34
2021/03/09 03:39:49;;;;;;;138.80;46.20;;;;;;;;;;5161872;27;20282;-31
2021/03/09 03:42:35;;;;;;;123.47;43.47;;;;;;;;;;5161304;27;20197;-34
2021/03/09 03:45:21;;;;;;;144.20;49.80;;;;;;;;;;5160707;27;20242;-31
2021/03/09 03:48:08;;;;;;;133.83;46.23;;;;;;;;;;5161190;27;20354;-32
2021/03/09 03:50:55;;;;;;;143.33;48.63;;;;;;;;;;5160503;27;20196;-33
2021/03/09 03:53:46;;;;;;;144.13;47.53;;;;;;;;;;5160684;27;20197;-32
2021/03/09 03:56:38;;;;;;;141.00;48.07;;;;;;;;;;5160720;27;20194;-34
2021/03/09 03:59:25;;;;;;;145.90;51.00;;;;;;;;;;5160982;27;20653;-37
2021/03/09 04:02:12;;;;;;;138.30;51.27;;;;;;;;;;5160516;27;20201;-36
2021/03/09 04:04:58;;;;;;;153.17;55.97;;;;;;;;;;5160291;27;20201;-32
2021/03/09 04:07:45;;;;;;;141.40;49.17;;;;;;;;;;5160174;27;20197;-35
2021/03/09 04:10:31;;;;;;;145.13;48.23;;;;;;;;;;5160593;27;20617;-32
2021/03/09 04:13:19;;;;;;;151.67;49.07;;;;;;;;;;5160201;27;20197;-34
2021/03/09 04:16:05;;;;;;;152.00;50.17;;;;;;;;;;5159979;27;20676;-33
2021/03/09 04:18:52;;;;;;;136.50;47.40;;;;;;;;;;5160043;27;20652;-34
2021/03/09 04:21:38;;;;;;;153.13;50.53;;;;;;;;;;5159989;27;20201;-37
2021/03/09 04:24:27;;;;;;;149.20;47.77;;;;;;;;;;5160419;27;20201;-36
2021/03/09 04:27:21;;;;;;;144.83;46.67;;;;;;;;;;5159959;27;20358;-35
2021/03/09 04:30:14;;;;;;;156.07;49.70;;;;;;;;;;5160320;27;20310;-32
2021/03/09 04:32:59;;;;;;;165.07;51.17;;;;;;;;;;5159609;27;20270;-33
2021/03/09 04:35:45;;;;;;;165.63;52.47;;;;;;;;;;5160334;27;20241;-32
2021/03/09 04:38:31;;;;;;;168.77;52.87;;;;;;;;;;5159938;27;20225;-35
2021/03/09 04:41:17;;;;;;;160.43;51.17;;;;;;;;;;5160210;27;20270;-33
2021/03/09 04:44:03;;;;;;;155.63;51.73;;;;;;;;;;5159901;27;20258;-33
2021/03/09 04:46:50;;;;;;;146.97;59.23;;;;;;;;;;5160239;27;20243;-33
2021/03/09 04:49:36;;;;;;;164.33;54.00;;;;;;;;;;5159834;27;20211;-32
2021/03/09 04:52:23;;;;;;;148.83;51.17;;;;;;;;;;5159344;27;20597;-33
2021/03/09 04:55:09;;;;;;;172.30;55.47;;;;;;;;;;5159983;27;20197;-31
2021/03/09 04:57:54;;;;;;;175.50;54.70;;;;;;;;;;5159293;27;20227;-34
2021/03/09 05:00:40;;;;;;;178.70;58.07;;;;;;;;;;5158793;27;20200;-37
2021/03/09 05:03:27;;;;;;;170.43;57.13;;;;;;;;;;5159007;27;20522;-34
2021/03/09 05:06:13;;;;;;;166.57;53.87;;;;;;;;;;5158538;27;20263;-34
2021/03/09 05:08:58;;;;;;;184.17;60.17;;;;;;;;;;5158970;27;20339;-34
2021/03/09 05:11:45;;;;;;;194.13;59.53;;;;;;;;;;5158993;27;20220;-32
2021/03/09 05:14:32;;;;;;;164.97;57.37;;;;;;;;;;5157758;27;20332;-37
2021/03/09 05:17:17;;;;;;;183.63;59.47;;;;;;;;;;5158900;27;20212;-33
2021/03/09 05:20:05;;;;;;;179.23;62.07;;;;;;;;;;5158868;27;20189;-34
2021/03/09 05:22:51;;;;;;;167.50;63.23;;;;;;;;;;5158351;27;20200;-35
2021/03/09 05:25:37;;;;;;;173.80;61.97;;;;;;;;;;5159111;27;20201;-32
2021/03/09 05:28:22;;;;;;;181.50;60.67;;;;;;;;;;5158808;27;20239;-32
2021/03/09 05:31:08;;;;;;;181.00;60.87;;;;;;;;;;5158705;27;20219;-33
2021/03/09 05:33:54;;;;;;;180.00;60.33;;;;;;;;;;5158430;27;20196;-35
2021/03/09 05:36:41;;;;;;;173.00;57.87;;;;;;;;;;5158297;27;20201;-32
2021/03/09 05:39:27;;;;;;;181.57;58.03;;;;;;;;;;5158300;27;20244;-33
2021/03/09 05:42:13;;;;;;;179.60;65.33;;;;;;;;;;5158615;27;20196;-35
2021/03/09 05:44:58;;;;;;;185.30;64.33;;;;;;;;;;5158859;27;20204;-37
2021/03/09 05:47:46;;;;;;;201.50;68.67;;;;;;;;;;5158178;27;20478;-32
2021/03/09 05:50:32;;;;;;;178.07;63.60;;;;;;;;;;5158487;27;20598;-33
2021/03/09 05:53:19;;;;;;;175.03;64.07;;;;;;;;;;5158162;27;20250;-36
2021/03/09 05:56:08;;;;;;;180.67;67.13;;;;;;;;;;5137423;27;20559;-36
2021/03/09 05:58:54;;;;;;;165.77;60.53;;;;;;;;;;5137126;27;20306;-40
2021/03/09 06:01:41;;;;;;;193.70;66.57;;;;;;;;;;5137357;27;20193;-36
2021/03/09 06:04:27;;;;;;;190.10;65.83;;;;;;;;;;5136978;27;20652;-32
2021/03/09 06:07:16;;;;;;;189.87;66.03;;;;;;;;;;5137224;27;20197;-39
2021/03/09 06:10:03;;;;;;;200.60;68.13;;;;;;;;;;5137364;27;20625;-38
2021/03/09 06:12:49;;;;;;;188.73;64.30;;;;;;;;;;5136965;27;20286;-37
2021/03/09 06:15:52;;;;;;;179.60;63.33;;;;;;;;;;5136671;27;20197;-35
2021/03/09 06:18:37;;;;;;;174.77;67.17;;;;;;;;;;5137153;27;20198;-35
2021/03/09 06:21:24;;;;;;;188.83;67.13;;;;;;;;;;5137036;27;20201;-38
2021/03/09 06:24:18;;;;;;;192.63;72.63;;;;;;;;;;5136698;28;20202;-38
2021/03/09 06:27:21;;;;;;;179.80;65.73;;;;;;;;;;5136727;27;20498;-40
2021/03/09 06:30:08;;;;;;;165.30;60.87;;;;;;;;;;5136502;28;20258;-38
2021/03/09 06:33:00;;;;;;;204.07;70.27;;;;;;;;;;5147654;27;20197;-43
2021/03/09 06:35:49;;;;;;;170.77;69.77;;;;;;;;;;5158079;27;20201;-38
2021/03/09 06:38:36;;;;;;;165.27;63.23;;;;;;;;;;5157527;27;20201;-39
2021/03/09 06:41:22;;;;;;;178.00;64.20;;;;;;;;;;5154632;27;20217;-37
2021/03/09 06:44:09;;;;;;;152.10;59.27;;;;;;;;;;5138081;27;20609;-33
2021/03/09 06:46:55;;;;;;;178.57;68.20;;;;;;;;;;5137473;27;20197;-37
2021/03/09 06:49:51;;;;;;;172.47;62.23;;;;;;;;;;5137171;28;20635;-38
2021/03/09 06:52:43;;;;;;;191.50;66.63;;;;;;;;;;5137419;27;20728;-40
2021/03/09 06:55:30;;;;;;;182.27;74.47;;;;;;;;;;5137184;28;20213;-38
2021/03/09 06:58:16;;;;;;;165.97;61.87;;;;;;;;;;5136796;28;20197;-37
2021/03/09 07:01:17;;;;;;;174.20;66.53;;;;;;;;;;5136778;28;20217;-40
2021/03/09 07:04:20;;;;;;;177.53;65.80;;;;;;;;;;5136668;28;20205;-37
2021/03/09 07:07:06;;;;;;;191.67;70.13;;;;;;;;;;5136945;28;20599;-41
2021/03/09 07:09:57;;;;;;;190.93;67.60;;;;;;;;;;5136540;28;20519;-37
2021/03/09 07:12:43;;;;;;;187.37;71.77;;;;;;;;;;5138008;27;20189;-40
2021/03/09 07:15:32;;;;;;;183.93;63.27;;;;;;;;;;5136738;28;20314;-40
2021/03/09 07:18:19;;;;;;;187.23;74.67;;;;;;;;;;5136375;28;20198;-38
2021/03/09 07:21:09;;;;;;;197.27;71.63;;;;;;;;;;5136259;28;20198;-37
2021/03/09 07:23:56;;;;;;;202.00;77.73;;;;;;;;;;5136327;28;20194;-36
2021/03/09 07:26:42;;;;;;;207.53;88.77;;;;;;;;;;5136016;28;20258;-41
2021/03/09 07:29:28;;;;;;;205.40;67.03;;;;;;;;;;5135730;28;20643;-39
2021/03/09 07:32:17;;;;;;;198.57;72.00;;;;;;;;;;5136091;27;20315;-40
2021/03/09 07:35:04;;;;;;;183.70;69.33;;;;;;;;;;5136253;28;20198;-40
2021/03/09 07:37:52;;;;;;;189.83;72.30;;;;;;;;;;5137106;27;20197;-39
2021/03/09 07:40:37;;;;;;;166.07;64.70;;;;;;;;;;5140391;27;20320;-40
2021/03/09 07:43:26;;;;;;;149.90;60.50;;;;;;;;;;5139708;27;20475;-40
2021/03/09 07:46:12;;;;;;;160.43;62.57;;;;;;;;;;5138648;27;20202;-40
2021/03/09 07:48:58;;;;;;;186.87;66.03;;;;;;;;;;5138743;27;20282;-41
2021/03/09 07:52:07;;;;;;;152.07;58.50;;;;;;;;;;5144279;27;20208;-39
2021/03/09 07:55:12;;;;;;;152.50;59.83;;;;;;;;;;5139785;27;20478;-39
2021/03/09 07:58:14;;;;;;;159.40;64.03;;;;;;;;;;5152115;27;20217;-42
2021/03/09 08:01:01;;;;;;;158.90;61.73;;;;;;;;;;5139082;27;20205;-42
2021/03/09 08:03:46;;;;;;;167.97;63.47;;;;;;;;;;5138255;27;20202;-41
2021/03/09 08:06:43;;;;;;;176.60;65.47;;;;;;;;;;5138826;27;20495;-42
2021/03/09 08:09:35;;;;;;;168.43;63.93;;;;;;;;;;5138091;27;20289;-41
2021/03/09 08:12:23;;;;;;;141.13;56.73;;;;;;;;;;5138306;27;20287;-41
2021/03/09 08:15:21;;;;;;;142.80;58.20;;;;;;;;;;5137776;27;20241;-41
2021/03/09 08:18:22;;;;;;;176.93;61.27;;;;;;;;;;5137953;27;20231;-41
2021/03/09 08:21:08;;;;;;;161.27;69.37;;;;;;;;;;5138522;27;20201;-42
2021/03/09 08:23:57;;;;;;;150.47;58.50;;;;;;;;;;5139512;27;20611;-40
2021/03/09 08:26:44;;;;;;;137.23;58.13;;;;;;;;;;5138129;27;20209;-39
2021/03/09 08:29:33;;;;;;;128.57;55.27;;;;;;;;;;5138594;27;20371;-40
2021/03/09 08:32:38;;;;;;;147.93;58.07;;;;;;;;;;5139144;27;20223;-42
2021/03/09 08:35:38;;;;;;;149.10;56.77;;;;;;;;;;5138978;27;20282;-41
2021/03/09 08:38:26;;;;;;;127.60;52.87;;;;;;;;;;5138947;27;20251;-41
2021/03/09 08:41:12;;;;;;;123.63;51.27;;;;;;;;;;5139469;27;20331;-41
2021/03/09 08:44:13;;;;;;;122.33;51.33;;;;;;;;;;5139362;27;20306;-42
2021/03/09 08:47:00;;;;;;;125.20;51.73;;;;;;;;;;5138961;27;20351;-41
2021/03/09 08:49:49;;;;;;;116.83;49.50;;;;;;;;;;5139056;27;20291;-42
2021/03/09 08:52:42;;;;;;;131.20;59.17;;;;;;;;;;5138863;27;20283;-40
2021/03/09 08:55:28;;;;;;;114.47;50.17;;;;;;;;;;5138180;27;20298;-40
2021/03/09 08:58:19;;;;;;;124.77;50.73;;;;;;;;;;5138605;27;20437;-43
2021/03/09 09:01:06;;;;;;;105.20;48.90;;;;;;;;;;5138094;27;20237;-40
2021/03/09 09:03:52;;;;;;;103.87;48.83;;;;;;;;;;5138200;27;20480;-41
2021/03/09 09:06:40;;;;;;;114.67;49.00;;;;;;;;;;5138211;27;20197;-42
2021/03/09 09:09:36;;;;;;;100.13;44.57;;;;;;;;;;5154780;27;20281;-42
2021/03/09 09:12:29;;;;;;;88.40;44.67;;;;;;;;;;5138040;27;20198;-42
2021/03/09 09:15:16;;;;;;;94.90;44.80;;;;;;;;;;5152933;27;20233;-40
2021/03/09 09:18:03;;;;;;;96.93;41.53;;;;;;;;;;5158368;27;20201;-48
2021/03/09 09:20:50;;;;;;;90.10;44.80;;;;;;;;;;5158150;27;20201;-40
2021/03/09 09:23:36;;;;;;;95.07;41.70;;;;;;;;;;5158460;27;20216;-41
2021/03/09 09:26:22;;;;;;;91.30;42.30;;;;;;;;;;5158073;27;20275;-42
2021/03/09 09:29:08;;;;;;;94.20;45.07;;;;;;;;;;5158202;27;20228;-42
2021/03/09 09:31:55;;;;;;;94.60;44.57;;;;;;;;;;5158009;27;20209;-41
2021/03/09 09:34:43;;;;;;;109.10;49.30;;;;;;;;;;5158635;27;20201;-41
2021/03/09 09:37:30;;;;;;;91.87;42.80;;;;;;;;;;5158383;27;20197;-42
2021/03/09 09:40:16;;;;;;;101.53;47.50;;;;;;;;;;5158490;27;20293;-39
2021/03/09 09:43:04;;;;;;;102.83;46.13;;;;;;;;;;5158292;27;20197;-40
2021/03/09 09:45:55;;;;;;;102.90;46.30;;;;;;;;;;5158256;27;20347;-42
2021/03/09 09:48:43;;;;;;;93.60;43.23;;;;;;;;;;5157603;27;20233;-39
2021/03/09 09:51:29;;;;;;;102.50;47.47;;;;;;;;;;5158003;27;20467;-42
2021/03/09 09:54:35;;;;;;;110.90;48.17;;;;;;;;;;5158152;27;20285;-42
2021/03/09 09:57:22;;;;;;;112.40;49.77;;;;;;;;;;5158325;27;20482;-42
2021/03/09 10:00:12;;;;;;;101.40;47.23;;;;;;;;;;5157817;27;20462;-42
2021/03/09 10:03:14;;;;;;;104.47;49.50;;;;;;;;;;5158141;27;20595;-42
2021/03/09 10:06:14;;;;;;;121.47;52.70;;;;;;;;;;5157763;27;20196;-41
2021/03/09 10:09:15;;;;;;;124.90;51.90;;;;;;;;;;5157382;27;20225;-42
2021/03/09 10:12:04;;;;;;;127.53;56.07;;;;;;;;;;5157769;27;20254;-41
2021/03/09 10:14:54;;;;;;;124.37;54.20;;;;;;;;;;5157812;27;20253;-41
2021/03/09 10:17:45;;;;;;;118.77;52.93;;;;;;;;;;5148970;27;20480;-40
2021/03/09 10:20:34;;;;;;;121.10;52.10;;;;;;;;;;5135666;27;20479;-40
2021/03/09 10:23:21;;;;;;;134.47;57.67;;;;;;;;;;5137309;27;20205;-41
2021/03/09 10:26:09;;;;;;;129.50;56.50;;;;;;;;;;5138152;27;20204;-41
2021/03/09 10:29:15;;;;;;;139.37;57.47;;;;;;;;;;5137777;28;20226;-41
2021/03/09 10:32:03;;;;;;;140.40;57.60;;;;;;;;;;5137126;28;20221;-42
2021/03/09 10:34:52;;;;;;;140.77;58.73;;;;;;;;;;5137652;28;20259;-42
2021/03/09 10:37:41;;;;;;;142.03;58.60;;;;;;;;;;5137127;28;20197;-39
2021/03/09 10:40:34;;;;;;;135.03;53.83;;;;;;;;;;5137126;28;20197;-41
2021/03/09 10:43:35;;;;;;;123.83;55.57;;;;;;;;;;5137285;28;20336;-40
2021/03/09 10:46:20;;;;;;;143.87;58.30;;;;;;;;;;5137026;28;20256;-39
2021/03/09 10:49:09;;;;;;;125.13;54.17;;;;;;;;;;5136264;28;20322;-41
2021/03/09 10:52:00;;;;;;;137.60;57.60;;;;;;;;;;5141747;27;20480;-41
2021/03/09 10:54:48;;;;;;;126.97;56.27;;;;;;;;;;5157918;27;20460;-37
2021/03/09 10:57:43;;;;;;;143.23;57.10;;;;;;;;;;5157072;27;20201;-41
2021/03/09 11:00:28;;;;;;;133.17;52.93;;;;;;;;;;5157858;27;20338;-39
2021/03/09 11:03:14;;;;;;;138.93;55.13;;;;;;;;;;5157801;27;20200;-41
2021/03/09 11:05:59;;;;;;;134.60;55.30;;;;;;;;;;5157803;27;20475;-41
2021/03/09 11:08:46;;;;;;;119.93;51.93;;;;;;;;;;5158171;27;20229;-41
2021/03/09 11:11:33;;;;;;;138.20;55.97;;;;;;;;;;5157022;27;20603;-34
2021/03/09 11:14:18;;;;;;;122.30;53.93;;;;;;;;;;5160263;27;20236;-42
2021/03/09 11:17:04;;;;;;;128.43;55.03;;;;;;;;;;5161974;27;20200;-40
2021/03/09 11:19:50;;;;;;;117.93;56.37;;;;;;;;;;5161759;27;20495;-42
2021/03/09 11:22:36;;;;;;;121.23;52.33;;;;;;;;;;5160720;27;20315;-40
2021/03/09 11:25:47;;;;;;;123.90;53.67;;;;;;;;;;5162505;27;20197;-42
2021/03/09 11:28:33;;;;;;;110.00;48.70;;;;;;;;;;5160940;27;20197;-43
2021/03/09 11:31:19;;;;;;;118.33;51.80;;;;;;;;;;5161693;27;20205;-42
2021/03/09 11:34:09;;;;;;;115.40;49.40;;;;;;;;;;5161709;27;20469;-42
2021/03/09 11:36:54;;;;;;;117.93;52.53;;;;;;;;;;5161254;27;20258;-42
2021/03/09 11:39:47;;;;;;;103.13;48.27;;;;;;;;;;5159661;27;20542;-41
2021/03/09 11:42:34;;;;;;;119.87;53.67;;;;;;;;;;5160960;27;20232;-41
2021/03/09 11:45:20;;;;;;;111.77;48.77;;;;;;;;;;5159200;27;20201;-42
2021/03/09 11:48:06;;;;;;;112.70;51.70;;;;;;;;;;5159417;27;20266;-42
2021/03/09 11:50:55;;;;;;;111.23;51.20;;;;;;;;;;5160115;27;20626;-42
2021/03/09 11:53:42;;;;;;;105.20;50.93;;;;;;;;;;5160342;27;20626;-40
2021/03/09 11:56:28;;;;;;;114.60;53.37;;;;;;;;;;5160605;27;20500;-41
2021/03/09 11:59:15;;;;;;;107.83;51.83;;;;;;;;;;5160940;27;20201;-41
2021/03/09 12:02:01;;;;;;;107.67;53.30;;;;;;;;;;5140363;27;20209;-41
2021/03/09 12:04:47;;;;;;;123.97;55.00;;;;;;;;;;5144566;27;20258;-40
2021/03/09 12:07:33;;;;;;;115.57;53.27;;;;;;;;;;5160455;27;20201;-43
2021/03/09 12:10:20;;;;;;;108.43;51.70;;;;;;;;;;5160278;27;20213;-41
2021/03/09 12:13:06;;;;;;;117.27;54.03;;;;;;;;;;5159326;27;20209;-43
2021/03/09 12:15:53;;;;;;;109.03;51.40;;;;;;;;;;5118126;28;20484;-42
2021/03/09 12:18:38;;;;;;;108.37;49.93;;;;;;;;;;5118182;28;20272;-43
2021/03/09 12:21:24;;;;;;;114.33;51.27;;;;;;;;;;5117748;28;20202;-43
2021/03/09 12:24:10;;;;;;;111.93;50.07;;;;;;;;;;5118016;28;20325;-43
2021/03/09 12:26:56;;;;;;;118.53;53.83;;;;;;;;;;5117583;28;20260;-43
2021/03/09 12:29:41;;;;;;;105.17;50.73;;;;;;;;;;5116943;28;20364;-41
2021/03/09 12:32:28;;;;;;;106.40;49.30;;;;;;;;;;5118149;28;20203;-41
2021/03/09 12:35:15;;;;;;;117.30;54.47;;;;;;;;;;5118062;28;20265;-39
2021/03/09 12:38:01;;;;;;;128.50;54.33;;;;;;;;;;5118624;28;20198;-40
2021/03/09 12:40:46;;;;;;;134.67;58.10;;;;;;;;;;5117570;28;20205;-41
2021/03/09 12:43:35;;;;;;;114.27;52.63;;;;;;;;;;5117090;28;20291;-41
2021/03/09 12:46:21;;;;;;;134.50;56.20;;;;;;;;;;5117833;28;20296;-41
2021/03/09 12:49:08;;;;;;;116.80;53.07;;;;;;;;;;5117103;28;20222;-41
2021/03/09 12:51:53;;;;;;;132.47;54.63;;;;;;;;;;5117402;28;20587;-39
2021/03/09 12:54:41;;;;;;;125.00;54.40;;;;;;;;;;5118091;28;20203;-41
2021/03/09 12:57:27;;;;;;;132.50;54.87;;;;;;;;;;5117692;28;20584;-39
2021/03/09 13:00:13;;;;;;;115.27;51.03;;;;;;;;;;5118059;28;20466;-41
2021/03/09 13:03:00;;;;;;;118.23;49.07;;;;;;;;;;5117877;28;20217;-38
2021/03/09 13:05:52;;;;;;;111.40;52.77;;;;;;;;;;5117768;28;20202;-42
2021/03/09 13:08:40;;;;;;;120.80;53.97;;;;;;;;;;5117509;28;20196;-41
2021/03/09 13:11:25;;;;;;;139.37;55.17;;;;;;;;;;5117195;28;20196;-40
2021/03/09 13:14:14;;;;;;;128.73;53.53;;;;;;;;;;5137131;27;20233;-40
2021/03/09 13:16:59;;;;;;;121.63;54.60;;;;;;;;;;5158307;27;20197;-40
2021/03/09 13:19:45;;;;;;;140.50;58.67;;;;;;;;;;5157857;27;20193;-41
2021/03/09 13:22:32;;;;;;;147.20;59.23;;;;;;;;;;5158949;27;20243;-41
2021/03/09 13:25:22;;;;;;;139.10;55.70;;;;;;;;;;5158584;27;20456;-42
2021/03/09 13:28:08;;;;;;;150.30;58.40;;;;;;;;;;5158614;27;20252;-38
2021/03/09 13:30:57;;;;;;;133.47;53.00;;;;;;;;;;5159250;27;20496;-36
2021/03/09 13:33:47;;;;;;;134.73;55.07;;;;;;;;;;5157834;27;20218;-42
2021/03/09 13:36:34;;;;;;;140.60;55.37;;;;;;;;;;5157707;27;20610;-42
2021/03/09 13:39:21;;;;;;;134.83;56.47;;;;;;;;;;5158385;27;20209;-41
2021/03/09 13:42:11;;;;;;;139.87;58.27;;;;;;;;;;5157869;27;20202;-41
2021/03/09 13:44:57;;;;;;;150.03;58.03;;;;;;;;;;5157978;27;20331;-42
2021/03/09 13:47:46;;;;;;;134.53;52.97;;;;;;;;;;5152180;27;20225;-42
2021/03/09 13:50:33;;;;;;;144.70;55.63;;;;;;;;;;5157388;27;20230;-43
2021/03/09 13:53:19;;;;;;;135.60;55.80;;;;;;;;;;5157651;27;20331;-42
2021/03/09 13:56:06;;;;;;;149.73;60.13;;;;;;;;;;5156127;27;20197;-42
2021/03/09 13:58:52;;;;;;;157.43;60.90;;;;;;;;;;5158019;27;20721;-42
2021/03/09 14:01:38;;;;;;;135.73;54.77;;;;;;;;;;5157687;27;20287;-40
2021/03/09 14:04:24;;;;;;;136.10;54.03;;;;;;;;;;5162195;27;20480;-40
2021/03/09 14:07:12;;;;;;;143.60;56.97;;;;;;;;;;5159651;27;20362;-39
2021/03/09 14:10:01;;;;;;;134.03;55.63;;;;;;;;;;5161997;27;20275;-42
2021/03/09 14:12:49;;;;;;;154.43;57.30;;;;;;;;;;5162168;27;20290;-42
2021/03/09 14:15:35;;;;;;;141.60;55.83;;;;;;;;;;5161767;27;20199;-42
2021/03/09 14:18:21;;;;;;;146.20;56.07;;;;;;;;;;5157614;27;20200;-42
2021/03/09 14:21:09;;;;;;;136.23;53.30;;;;;;;;;;5157934;27;20541;-42
2021/03/09 14:23:54;;;;;;;144.40;55.47;;;;;;;;;;5158000;27;20506;-41
2021/03/09 14:26:41;;;;;;;135.73;53.23;;;;;;;;;;5156558;27;20273;-42
2021/03/09 14:29:29;;;;;;;142.10;55.87;;;;;;;;;;5156039;27;20363;-38
2021/03/09 14:32:15;;;;;;;132.23;51.77;;;;;;;;;;5156788;27;20206;-41
2021/03/09 14:35:02;;;;;;;130.90;50.33;;;;;;;;;;5156555;27;20492;-40
2021/03/09 14:37:50;;;;;;;120.87;51.63;;;;;;;;;;5156788;27;20199;-40
2021/03/09 14:40:36;;;;;;;144.23;53.13;;;;;;;;;;5151425;27;20587;-43
2021/03/09 14:43:22;;;;;;;144.40;55.03;;;;;;;;;;5141790;27;20204;-41
2021/03/09 14:46:11;;;;;;;132.40;54.07;;;;;;;;;;5150256;27;20206;-42
2021/03/09 14:48:58;;;;;;;146.07;56.10;;;;;;;;;;5161511;27;20245;-39
2021/03/09 14:51:47;;;;;;;153.13;54.97;;;;;;;;;;5161471;27;20245;-40
2021/03/09 14:54:33;;;;;;;156.63;57.53;;;;;;;;;;5160594;27;20203;-37
2021/03/09 14:57:18;;;;;;;151.23;55.10;;;;;;;;;;5161196;27;20326;-38
2021/03/09 15:00:07;;;;;;;139.57;56.57;;;;;;;;;;5161032;27;20196;-41
2021/03/09 15:02:54;;;;;;;148.43;55.43;;;;;;;;;;5160459;27;20355;-38
2021/03/09 15:05:40;;;;;;;156.97;56.10;;;;;;;;;;5160667;27;20196;-37
2021/03/09 15:08:29;;;;;;;151.57;56.40;;;;;;;;;;5160180;27;20193;-36
2021/03/09 15:11:14;;;;;;;151.50;53.93;;;;;;;;;;5160576;27;20590;-41
2021/03/09 15:14:00;;;;;;;161.37;58.03;;;;;;;;;;5160619;27;20238;-40
2021/03/09 15:16:46;;;;;;;141.70;56.40;;;;;;;;;;5161335;27;20485;-41
2021/03/09 15:19:33;;;;;;;159.40;57.97;;;;;;;;;;5161300;27;20192;-41
2021/03/09 15:22:18;;;;;;;69.87;34.33;;;;;;;;;;5161456;27;20200;-35
2021/03/09 15:25:09;;;;;;;163.47;56.83;;;;;;;;;;5160586;27;20280;-37
2021/03/09 15:27:55;;;;;;;143.27;53.57;;;;;;;;;;5160114;27;20204;-40
2021/03/09 15:30:41;;;;;;;147.33;54.80;;;;;;;;;;5161427;27;20228;-38
2021/03/09 15:33:31;;;;;;;151.93;55.37;;;;;;;;;;5160365;27;20598;-36
2021/03/09 15:36:21;;;;;;;149.53;56.03;;;;;;;;;;5160812;27;20614;-38
2021/03/09 15:39:08;;;;;;;141.63;55.73;;;;;;;;;;5161281;27;20217;-38
2021/03/09 15:41:53;;;;;;;139.70;53.17;;;;;;;;;;5161176;27;20205;-42
2021/03/09 15:44:39;;;;;;;154.57;56.07;;;;;;;;;;5160886;27;20196;-41
2021/03/09 15:47:26;;;;;;;139.37;52.87;;;;;;;;;;5161060;27;20321;-41
2021/03/09 15:50:15;;;;;;;146.80;53.60;;;;;;;;;;5159987;27;20249;-41
2021/03/09 15:53:01;;;;;;;143.67;58.00;;;;;;;;;;5160900;27;20334;-40
2021/03/09 15:55:51;;;;;;;131.63;52.93;;;;;;;;;;5160194;27;20195;-42
2021/03/09 15:58:38;;;;;;;130.50;54.93;;;;;;;;;;5159517;27;20195;-42
2021/03/09 16:01:30;;;;;;;138.70;52.13;;;;;;;;;;5160806;27;20189;-41
2021/03/09 16:04:18;;;;;;;127.83;52.70;;;;;;;;;;5160312;27;20270;-40
2021/03/09 16:07:04;;;;;;;124.90;52.10;;;;;;;;;;5160512;27;20197;-41